Time;durP1;ratioP1;P1;durP2;ratioP2;P2;SDS_P1;SDS_P2;PMS_P1;PMS_P2;Temp;Humidity;BMP_temperature;BMP_pressure;BME280_temperature;BME280_humidity;BME280_pressure;Samples;Min_cycle;Max_cycle;Signal;HPM_P1;HPM_P2
2022/04/19 00:00:19;;;;;;;5.77;4.20;;;9.70;99.90;;;;;;5027354;28;20198;-60
2022/04/19 00:02:46;;;;;;;6.83;4.33;;;9.60;99.90;;;;;;5028738;28;20201;-60
2022/04/19 00:05:14;;;;;;;9.30;5.10;;;9.60;99.90;;;;;;5044380;28;20201;-61
2022/04/19 00:07:42;;;;;;;9.43;4.90;;;9.60;99.90;;;;;;5030921;28;20193;-61
2022/04/19 00:10:09;;;;;;;8.17;5.07;;;9.50;99.90;;;;;;5023593;28;20244;-60
2022/04/19 00:12:37;;;;;;;8.53;5.30;;;9.60;99.90;;;;;;5051296;28;20666;-60
2022/04/19 00:15:06;;;;;;;8.23;4.63;;;9.50;99.90;;;;;;5031252;28;20228;-60
2022/04/19 00:17:33;;;;;;;7.87;4.37;;;9.60;99.90;;;;;;5029686;28;20212;-60
2022/04/19 00:20:00;;;;;;;7.50;4.43;;;9.50;99.90;;;;;;5046223;28;20208;-61
2022/04/19 00:22:27;;;;;;;8.07;4.47;;;9.50;99.90;;;;;;5054342;28;20218;-60
2022/04/19 00:24:55;;;;;;;10.53;4.40;;;9.50;99.90;;;;;;5030633;28;20281;-61
2022/04/19 00:27:21;;;;;;;5.63;4.40;;;9.50;99.90;;;;;;5033191;28;20204;-60
2022/04/19 00:29:49;;;;;;;7.70;4.10;;;9.50;99.90;;;;;;5048343;28;20258;-61
2022/04/19 00:32:17;;;;;;;8.07;4.43;;;9.60;99.90;;;;;;5012311;28;20210;-61
2022/04/19 00:34:46;;;;;;;7.90;4.60;;;9.50;99.90;;;;;;5043366;28;21187;-60
2022/04/19 00:37:14;;;;;;;8.67;4.43;;;9.60;99.90;;;;;;5048917;28;20851;-60
2022/04/19 00:39:41;;;;;;;7.93;4.33;;;9.50;99.90;;;;;;5031355;28;20212;-61
2022/04/19 00:42:08;;;;;;;7.23;4.10;;;9.60;99.90;;;;;;5032175;28;20204;-60
2022/04/19 00:44:37;;;;;;;7.27;4.10;;;9.50;99.90;;;;;;5041930;28;20201;-61
2022/04/19 00:47:07;;;;;;;6.67;4.30;;;9.40;99.90;;;;;;5009982;28;20209;-60
2022/04/19 00:49:36;;;;;;;6.10;3.90;;;9.50;99.90;;;;;;5053757;28;20270;-61
2022/04/19 00:52:03;;;;;;;9.13;4.50;;;9.50;99.90;;;;;;5037758;28;20211;-61
2022/04/19 00:54:31;;;;;;;8.93;3.97;;;9.40;99.90;;;;;;5032975;28;20205;-60
2022/04/19 00:56:58;;;;;;;9.40;4.53;;;9.30;99.90;;;;;;5036690;28;20204;-61
2022/04/19 00:59:25;;;;;;;6.80;4.00;;;9.20;99.90;;;;;;5041219;28;20212;-60
2022/04/19 01:01:53;;;;;;;7.07;4.27;;;9.20;99.90;;;;;;5044747;28;20214;-61
2022/04/19 01:04:20;;;;;;;7.20;4.20;;;9.10;99.90;;;;;;5039884;28;21121;-61
2022/04/19 01:06:48;;;;;;;5.80;3.80;;;9.10;99.90;;;;;;5038130;28;20204;-59
2022/04/19 01:09:15;;;;;;;8.20;4.10;;;9.10;99.90;;;;;;5044660;28;20964;-61
2022/04/19 01:14:28;;;;;;;7.40;4.60;;;8.90;99.90;;;;;;5044751;28;20228;-60
2022/04/19 01:16:56;;;;;;;7.53;3.93;;;8.90;99.90;;;;;;5037636;28;20212;-60
2022/04/19 01:19:23;;;;;;;10.03;4.37;;;8.80;99.90;;;;;;5039514;28;20302;-60
2022/04/19 01:21:54;;;;;;;7.17;4.60;;;8.70;99.90;;;;;;5042896;28;20771;-61
2022/04/19 01:24:23;;;;;;;7.07;4.40;;;8.50;99.90;;;;;;5050922;28;20193;-61
2022/04/19 01:26:53;;;;;;;9.03;4.90;;;8.40;99.90;;;;;;5027204;28;20217;-60
2022/04/19 01:29:20;;;;;;;6.47;3.73;;;8.40;99.90;;;;;;5032659;28;20207;-60
2022/04/19 01:31:48;;;;;;;7.07;4.43;;;8.40;99.90;;;;;;5053809;28;20193;-60
2022/04/19 01:34:15;;;;;;;8.20;4.60;;;8.40;99.90;;;;;;5028628;28;20212;-60
2022/04/19 01:36:42;;;;;;;8.63;3.93;;;8.20;99.90;;;;;;5053025;28;20204;-60
2022/04/19 01:39:12;;;;;;;9.50;4.63;;;8.20;99.90;;;;;;5037474;28;20193;-60
2022/04/19 01:41:40;;;;;;;6.87;3.70;;;8.20;99.90;;;;;;5038411;28;20197;-60
2022/04/19 01:44:09;;;;;;;6.87;4.20;;;8.10;99.90;;;;;;5046135;28;20201;-61
2022/04/19 01:46:36;;;;;;;5.93;3.60;;;8.00;99.90;;;;;;5053521;28;20218;-60
2022/04/19 01:49:04;;;;;;;7.90;4.17;;;7.80;99.90;;;;;;5023109;28;20197;-61
2022/04/19 01:51:31;;;;;;;5.97;4.03;;;7.90;99.90;;;;;;5047626;28;20231;-61
2022/04/19 01:53:58;;;;;;;6.37;4.10;;;7.80;99.90;;;;;;5034002;28;20399;-60
2022/04/19 01:56:26;;;;;;;7.07;3.90;;;7.80;99.90;;;;;;5027716;28;20214;-61
2022/04/19 01:58:53;;;;;;;8.13;4.40;;;7.90;99.90;;;;;;5027054;28;20216;-60
2022/04/19 02:01:20;;;;;;;11.47;4.07;;;7.80;99.90;;;;;;5049842;28;20283;-60
2022/04/19 02:03:47;;;;;;;6.93;3.90;;;7.80;99.90;;;;;;5049757;28;20200;-61
2022/04/19 02:09:36;;;;;;;5.87;4.00;;;7.70;99.90;;;;;;5039320;28;20242;-60
2022/04/19 02:12:05;;;;;;;5.30;3.83;;;7.70;99.90;;;;;;5027622;28;20205;-60
2022/04/19 02:14:32;;;;;;;6.77;3.80;;;7.80;99.90;;;;;;5030135;28;20220;-61
2022/04/19 02:16:59;;;;;;;5.93;3.87;;;7.80;99.90;;;;;;5047602;28;20193;-60
2022/04/19 02:19:26;;;;;;;6.57;4.23;;;7.80;99.90;;;;;;5051662;28;20212;-60
2022/04/19 02:21:53;;;;;;;5.73;3.90;;;7.80;99.90;;;;;;5028846;28;20227;-60
2022/04/19 02:24:20;;;;;;;4.83;3.97;;;7.70;99.90;;;;;;5036625;28;20205;-60
2022/04/19 02:26:47;;;;;;;6.90;4.03;;;7.60;99.90;;;;;;5033486;28;20215;-61
2022/04/19 02:29:16;;;;;;;7.07;3.67;;;7.50;99.90;;;;;;5026622;28;20212;-60
2022/04/19 02:31:43;;;;;;;87.53;72.60;;;7.50;99.90;;;;;;5048204;28;20236;-60
2022/04/19 02:34:10;;;;;;;17.20;13.87;;;7.30;99.90;;;;;;5041469;28;20197;-60
2022/04/19 02:36:39;;;;;;;11.67;5.90;;;7.20;99.90;;;;;;5029225;28;20216;-61
2022/04/19 02:39:05;;;;;;;13.67;5.60;;;7.00;99.90;;;;;;5036089;28;20204;-60
2022/04/19 02:41:32;;;;;;;6.63;4.67;;;6.90;99.90;;;;;;5027094;28;20205;-60
2022/04/19 02:44:00;;;;;;;8.10;4.77;;;6.80;99.90;;;;;;5038556;28;20203;-60
2022/04/19 02:46:29;;;;;;;8.47;4.53;;;6.70;99.90;;;;;;5037577;28;20210;-60
2022/04/19 02:48:57;;;;;;;8.90;4.47;;;6.70;99.90;;;;;;5042449;28;20200;-60
2022/04/19 02:51:24;;;;;;;6.87;4.27;;;6.70;99.90;;;;;;5027573;28;20789;-64
2022/04/19 02:53:53;;;;;;;8.37;4.63;;;6.70;99.90;;;;;;5046369;28;20220;-60
2022/04/19 02:56:20;;;;;;;8.60;4.47;;;6.80;99.90;;;;;;5038303;28;20240;-60
2022/04/19 02:58:46;;;;;;;6.13;4.23;;;6.80;99.90;;;;;;5032407;28;20220;-60
2022/04/19 03:01:13;;;;;;;7.43;4.50;;;6.90;99.90;;;;;;5026009;28;20216;-60
2022/04/19 03:03:43;;;;;;;6.70;4.40;;;7.00;99.90;;;;;;5046161;28;20716;-60
2022/04/19 03:06:10;;;;;;;6.90;4.17;;;7.00;99.90;;;;;;5027521;28;20687;-60
2022/04/19 03:08:37;;;;;;;6.27;4.00;;;7.00;99.90;;;;;;5044507;28;20199;-61
2022/04/19 03:11:04;;;;;;;8.07;4.57;;;7.00;99.90;;;;;;5046505;28;20232;-61
2022/04/19 03:13:32;;;;;;;6.43;4.30;;;6.80;99.90;;;;;;5026856;28;20221;-60
2022/04/19 03:16:00;;;;;;;6.80;4.20;;;6.70;99.90;;;;;;5027341;28;20200;-60
2022/04/19 03:18:27;;;;;;;8.97;4.37;;;6.70;99.90;;;;;;5032366;28;20506;-60
2022/04/19 03:20:55;;;;;;;6.40;4.70;;;6.70;99.90;;;;;;5049292;28;20207;-60
2022/04/19 03:28:50;;;;;;;6.97;4.67;;;6.50;99.90;;;;;;5027441;28;20921;-60
2022/04/19 03:31:17;;;;;;;7.03;4.63;;;6.50;99.90;;;;;;5027522;28;21164;-60
2022/04/19 03:33:44;;;;;;;5.70;4.20;;;6.50;99.90;;;;;;5042666;28;20690;-60
2022/04/19 03:36:12;;;;;;;5.90;4.03;;;6.50;99.90;;;;;;5044430;28;20201;-60
2022/04/19 03:38:39;;;;;;;6.33;4.53;;;6.50;99.90;;;;;;5030920;28;20208;-60
2022/04/19 03:41:06;;;;;;;6.43;4.27;;;6.40;99.90;;;;;;5033186;28;20205;-62
2022/04/19 03:43:33;;;;;;;8.00;4.10;;;6.40;99.90;;;;;;5044937;28;20231;-60
2022/04/19 03:46:00;;;;;;;7.00;4.37;;;6.40;99.90;;;;;;5016242;28;20207;-60
2022/04/19 03:48:27;;;;;;;7.13;3.30;;;6.40;99.90;;;;;;5046270;28;20201;-61
2022/04/19 03:50:54;;;;;;;7.47;4.00;;;6.40;99.90;;;;;;5049793;28;20674;-61
2022/04/19 03:53:22;;;;;;;6.60;3.90;;;6.40;99.90;;;;;;5047710;28;20286;-60
2022/04/19 03:55:49;;;;;;;5.10;3.80;;;6.50;99.90;;;;;;5021567;28;20211;-60
2022/04/19 03:58:16;;;;;;;8.23;3.57;;;6.40;99.90;;;;;;5043146;28;20310;-60
2022/04/19 04:00:43;;;;;;;8.13;3.90;;;6.40;99.90;;;;;;5030418;28;20215;-60
2022/04/19 04:03:10;;;;;;;5.70;3.90;;;6.40;99.90;;;;;;5027874;28;20205;-61
2022/04/19 04:05:37;;;;;;;9.97;4.13;;;6.20;99.90;;;;;;5047794;28;20223;-61
2022/04/19 04:08:04;;;;;;;5.47;3.47;;;6.00;99.90;;;;;;5047590;28;20212;-60
2022/04/19 04:10:32;;;;;;;6.03;3.53;;;6.10;99.90;;;;;;5031541;28;20217;-60
2022/04/19 04:13:00;;;;;;;6.40;4.10;;;6.20;99.90;;;;;;5046587;28;20197;-61
2022/04/19 04:15:27;;;;;;;5.57;3.50;;;6.10;99.90;;;;;;5051534;28;20382;-60
2022/04/19 04:17:54;;;;;;;7.10;4.37;;;6.00;99.90;;;;;;5017209;28;20675;-60
2022/04/19 04:20:21;;;;;;;7.10;3.97;;;5.90;99.90;;;;;;5044997;28;21011;-60
2022/04/19 04:22:48;;;;;;;11.33;4.60;;;5.90;99.90;;;;;;5059432;28;20210;-60
2022/04/19 04:25:14;;;;;;;4.57;3.73;;;5.80;99.90;;;;;;5042374;28;21809;-60
2022/04/19 04:27:43;;;;;;;5.77;3.70;;;5.90;99.90;;;;;;5046606;28;21064;-60
2022/04/19 04:30:10;;;;;;;7.17;3.87;;;5.90;99.90;;;;;;5040495;28;20202;-60
2022/04/19 04:32:37;;;;;;;6.33;3.93;;;5.90;99.90;;;;;;5027263;28;20837;-60
2022/04/19 04:35:04;;;;;;;6.00;3.90;;;5.80;99.90;;;;;;5045310;28;20204;-60
2022/04/19 04:37:31;;;;;;;4.93;3.90;;;5.90;99.90;;;;;;5044416;28;20367;-60
2022/04/19 04:39:58;;;;;;;5.80;3.63;;;5.90;99.90;;;;;;5047341;28;20193;-60
2022/04/19 04:42:25;;;;;;;6.07;3.53;;;6.00;99.90;;;;;;5015285;28;20212;-60
2022/04/19 04:44:53;;;;;;;4.33;3.30;;;6.00;99.90;;;;;;5045177;28;20193;-60
2022/04/19 04:50:05;;;;;;;5.57;3.47;;;5.90;99.90;;;;;;5044892;28;20585;-60
2022/04/19 04:52:32;;;;;;;4.57;3.40;;;5.80;99.90;;;;;;5043686;28;20221;-60
2022/04/19 04:54:59;;;;;;;8.87;4.13;;;5.80;99.90;;;;;;5049652;28;20588;-60
2022/04/19 04:57:26;;;;;;;8.60;3.60;;;5.80;99.90;;;;;;5024093;28;20863;-60
2022/04/19 04:59:54;;;;;;;4.30;3.57;;;5.70;99.90;;;;;;5047472;28;20204;-60
2022/04/19 05:02:23;;;;;;;7.57;4.90;;;5.90;99.90;;;;;;5039916;28;20208;-60
2022/04/19 05:04:50;;;;;;;6.83;3.93;;;5.80;99.90;;;;;;5041503;28;20208;-60
2022/04/19 05:07:18;;;;;;;6.47;3.30;;;5.80;99.90;;;;;;5046515;28;20924;-60
2022/04/19 05:09:45;;;;;;;4.10;3.20;;;5.80;99.90;;;;;;5049220;28;20229;-60
2022/04/19 05:12:12;;;;;;;4.80;3.23;;;5.80;99.90;;;;;;5046694;28;20823;-60
2022/04/19 05:14:39;;;;;;;7.13;3.53;;;5.70;99.90;;;;;;5026229;28;20247;-60
2022/04/19 05:17:07;;;;;;;4.67;3.00;;;5.80;99.90;;;;;;5047397;28;20667;-61
2022/04/19 05:19:34;;;;;;;4.13;3.37;;;5.90;99.90;;;;;;5027795;28;20197;-60
2022/04/19 05:22:01;;;;;;;5.47;3.20;;;5.90;99.90;;;;;;5046596;28;20211;-60
2022/04/19 05:24:28;;;;;;;5.57;3.50;;;6.00;99.90;;;;;;5048600;28;20685;-60
2022/04/19 05:26:55;;;;;;;6.70;3.07;;;6.00;99.90;;;;;;5044985;28;20204;-61
2022/04/19 05:29:22;;;;;;;7.20;4.10;;;6.10;99.90;;;;;;5030305;28;20270;-60
2022/04/19 05:31:49;;;;;;;5.37;4.00;;;6.10;99.90;;;;;;5048637;28;20242;-60
2022/04/19 05:34:18;;;;;;;18.77;3.90;;;6.30;99.90;;;;;;5042846;28;20202;-60
2022/04/19 05:36:45;;;;;;;5.97;3.70;;;6.40;99.90;;;;;;5032969;28;20202;-60
2022/04/19 05:39:12;;;;;;;6.13;4.03;;;6.40;99.90;;;;;;5052010;28;20679;-60
2022/04/19 05:41:40;;;;;;;5.87;4.10;;;6.50;99.90;;;;;;5047094;28;20208;-61
2022/04/19 05:44:09;;;;;;;6.03;3.33;;;6.60;99.90;;;;;;5051528;28;20207;-61
2022/04/19 05:46:37;;;;;;;6.80;3.63;;;6.80;99.90;;;;;;5028468;28;20245;-61
2022/04/19 05:49:05;;;;;;;5.27;3.73;;;6.90;99.90;;;;;;5043529;28;20246;-60
2022/04/19 05:51:34;;;;;;;4.57;3.57;;;7.00;99.90;;;;;;5021789;28;20683;-60
2022/04/19 05:54:00;;;;;;;5.43;3.23;;;7.10;99.90;;;;;;5046601;28;20226;-60
2022/04/19 05:56:27;;;;;;;5.17;3.80;;;7.20;99.90;;;;;;5043113;28;20298;-58
2022/04/19 05:58:54;;;;;;;5.60;3.67;;;7.20;99.90;;;;;;5045745;28;20199;-60
2022/04/19 06:01:22;;;;;;;7.67;3.87;;;7.40;99.90;;;;;;5021963;28;20794;-60
2022/04/19 06:06:35;;;;;;;8.17;4.87;;;7.50;99.90;;;;;;5029119;28;20372;-60
2022/04/19 06:09:01;;;;;;;4.87;3.27;;;7.60;99.90;;;;;;5050516;28;20889;-59
2022/04/19 06:11:29;;;;;;;5.17;3.20;;;7.70;99.90;;;;;;5044423;28;20229;-60
2022/04/19 06:13:55;;;;;;;4.70;3.20;;;7.80;99.90;;;;;;5049126;28;20201;-60
2022/04/19 06:16:22;;;;;;;4.53;3.23;;;7.90;99.90;;;;;;5028338;28;20216;-60
2022/04/19 06:18:49;;;;;;;5.83;3.27;;;8.00;99.90;;;;;;5050192;28;20258;-60
2022/04/19 06:21:16;;;;;;;3.77;3.23;;;8.00;99.90;;;;;;5028991;28;20698;-60
2022/04/19 06:23:44;;;;;;;4.27;3.07;;;8.10;99.90;;;;;;5046072;28;20208;-60
2022/04/19 06:26:11;;;;;;;6.23;2.93;;;8.20;99.90;;;;;;5053683;28;20203;-60
2022/04/19 06:28:38;;;;;;;5.13;3.27;;;8.20;99.90;;;;;;5045198;28;20222;-60
2022/04/19 06:31:06;;;;;;;5.37;3.20;;;8.30;99.90;;;;;;5044456;28;20204;-60
2022/04/19 06:33:33;;;;;;;4.13;2.53;;;8.40;99.90;;;;;;5039173;28;20786;-60
2022/04/19 06:36:02;;;;;;;6.23;2.97;;;8.50;99.90;;;;;;5049523;28;20208;-60
2022/04/19 06:38:29;;;;;;;4.07;2.80;;;8.70;99.90;;;;;;5033561;28;20358;-60
2022/04/19 06:40:59;;;;;;;4.90;2.30;;;8.70;99.90;;;;;;5047646;28;20196;-60
2022/04/19 06:43:26;;;;;;;3.50;2.33;;;8.80;99.90;;;;;;5047223;28;20208;-61
2022/04/19 06:45:53;;;;;;;10.10;2.63;;;8.80;99.90;;;;;;5051167;28;20330;-60
2022/04/19 06:48:20;;;;;;;3.80;2.20;;;9.00;99.90;;;;;;5018200;28;23811;-60
2022/04/19 06:50:47;;;;;;;2.77;1.53;;;9.00;99.90;;;;;;5048831;28;20202;-60
2022/04/19 06:53:14;;;;;;;3.17;1.90;;;9.10;99.90;;;;;;5020619;28;20225;-61
2022/04/19 06:55:41;;;;;;;1.93;1.50;;;9.20;99.90;;;;;;5042629;28;20197;-60
2022/04/19 06:58:09;;;;;;;2.17;1.43;;;9.20;99.90;;;;;;5051714;28;20767;-60
2022/04/19 07:00:36;;;;;;;1.97;1.63;;;9.30;99.90;;;;;;5050604;28;20282;-60
2022/04/19 07:03:03;;;;;;;2.90;1.93;;;9.40;99.90;;;;;;5039889;28;20231;-60
2022/04/19 07:05:30;;;;;;;2.27;1.73;;;9.40;99.90;;;;;;5053991;28;20308;-60
2022/04/19 07:07:57;;;;;;;1.73;1.40;;;9.50;99.90;;;;;;5024758;28;20217;-60
2022/04/19 07:10:24;;;;;;;3.17;1.60;;;9.50;99.90;;;;;;5034036;28;20208;-60
2022/04/19 07:12:51;;;;;;;6.87;2.57;;;9.60;99.90;;;;;;5043314;28;20229;-59
2022/04/19 07:15:20;;;;;;;10.67;1.50;;;9.60;99.90;;;;;;5033175;28;20223;-60
2022/04/19 07:17:47;;;;;;;4.23;1.47;;;9.70;99.90;;;;;;5026706;28;20224;-60
2022/04/19 07:28:27;;;;;;;2.37;1.27;;;10.00;99.90;;;;;;5032802;28;20627;-60
2022/04/19 07:30:56;;;;;;;1.43;1.20;;;10.00;99.90;;;;;;5042348;28;20606;-61
2022/04/19 07:33:23;;;;;;;1.20;1.10;;;10.10;99.90;;;;;;5023189;28;20228;-61
2022/04/19 07:35:52;;;;;;;9.73;1.60;;;10.20;99.90;;;;;;5040836;28;20336;-62
2022/04/19 07:38:20;;;;;;;2.27;1.17;;;10.30;99.90;;;;;;5014872;28;20221;-62
2022/04/19 07:40:47;;;;;;;2.08;1.55;;;10.40;99.90;;;;;;5041717;28;20229;-62
2022/04/19 07:43:14;;;;;;;2.73;1.90;;;10.50;99.90;;;;;;5042355;28;20552;-61
2022/04/19 07:45:42;;;;;;;3.17;1.30;;;10.50;99.90;;;;;;5020734;28;20746;-61
2022/04/19 07:48:10;;;;;;;1.30;1.20;;;10.50;99.90;;;;;;5035672;28;20282;-62
2022/04/19 07:50:39;;;;;;;1.67;1.57;;;10.60;99.90;;;;;;5026016;28;20228;-61
2022/04/19 07:53:07;;;;;;;2.27;1.50;;;10.60;99.90;;;;;;5043508;28;20246;-61
2022/04/19 07:55:34;;;;;;;1.33;1.23;;;10.60;99.90;;;;;;5025884;28;20350;-61
2022/04/19 07:58:01;;;;;;;3.65;1.30;;;10.70;99.90;;;;;;5040725;28;20229;-62
2022/04/19 08:00:28;;;;;;;1.13;1.03;;;10.70;99.90;;;;;;5023937;28;20315;-62
2022/04/19 08:02:55;;;;;;;1.30;1.20;;;10.80;99.90;;;;;;5040144;28;20287;-61
2022/04/19 08:05:24;;;;;;;1.67;1.35;;;10.90;99.90;;;;;;5025788;28;21641;-61
2022/04/19 08:07:51;;;;;;;1.42;1.20;;;10.90;99.90;;;;;;5048750;28;20196;-61
2022/04/19 08:10:19;;;;;;;3.83;1.55;;;11.00;99.90;;;;;;5026302;28;21410;-61
2022/04/19 08:12:47;;;;;;;2.22;1.60;;;11.00;99.90;;;;;;5034473;28;20381;-61
2022/04/19 08:15:14;;;;;;;1.88;1.30;;;11.00;99.90;;;;;;5009437;23;20326;-61
2022/04/19 08:17:41;;;;;;;10.75;1.33;;;11.10;99.90;;;;;;5014408;28;20213;-61
2022/04/19 08:20:09;;;;;;;9.55;1.33;;;11.20;99.90;;;;;;5005023;28;20415;-61
2022/04/19 08:22:37;;;;;;;7.97;1.27;;;11.30;99.90;;;;;;5016182;28;20738;-61
2022/04/19 08:25:06;;;;;;;3.63;1.67;;;11.40;99.90;;;;;;5005374;28;20924;-61
2022/04/19 08:27:33;;;;;;;1.65;1.25;;;11.40;99.90;;;;;;5019830;28;20680;-61
2022/04/19 08:30:02;;;;;;;3.22;1.58;;;11.40;99.90;;;;;;5014904;28;20703;-63
2022/04/19 08:32:29;;;;;;;2.22;1.42;;;11.50;99.90;;;;;;5001735;28;20240;-62
2022/04/19 08:34:56;;;;;;;2.08;1.48;;;11.50;99.90;;;;;;5013005;28;20252;-62
2022/04/19 08:37:23;;;;;;;2.05;1.50;;;11.50;99.90;;;;;;5025245;28;21217;-61
2022/04/19 08:39:52;;;;;;;2.60;1.48;;;11.60;99.90;;;;;;5005145;28;20328;-61
2022/04/19 08:42:19;;;;;;;2.05;1.63;;;11.60;99.90;;;;;;5020644;28;20222;-61
2022/04/19 08:44:46;;;;;;;2.45;1.30;;;11.60;99.90;;;;;;5025202;28;20226;-62
2022/04/19 08:47:15;;;;;;;4.10;1.83;;;11.70;99.90;;;;;;5009011;28;20288;-62
2022/04/19 08:49:43;;;;;;;2.72;1.77;;;11.70;99.90;;;;;;5002937;28;20915;-61
2022/04/19 08:52:11;;;;;;;4.80;1.92;;;11.70;99.90;;;;;;5019198;28;20240;-61
2022/04/19 08:57:30;;;;;;;3.42;1.98;;;11.90;99.90;;;;;;5023454;28;20241;-61
2022/04/19 08:59:57;;;;;;;3.90;2.70;;;12.00;99.90;;;;;;5019311;28;20247;-61
2022/04/19 09:02:27;;;;;;;2.38;2.17;;;12.10;99.90;;;;;;5013177;28;20213;-61
2022/04/19 09:04:54;;;;;;;2.20;1.90;;;12.20;99.90;;;;;;5010675;28;20210;-61
2022/04/19 09:07:36;;;;;;;3.13;2.10;;;12.20;99.90;;;;;;5023266;28;21166;-61
2022/04/19 09:10:06;;;;;;;3.92;2.13;;;12.20;99.90;;;;;;5015584;28;20272;-61
2022/04/19 09:12:34;;;;;;;3.35;2.45;;;12.40;99.90;;;;;;5006271;28;20251;-61
2022/04/19 09:15:06;;;;;;;3.22;2.08;;;12.40;99.90;;;;;;5011008;28;20222;-61
2022/04/19 09:17:34;;;;;;;4.45;2.53;;;12.40;99.90;;;;;;5007805;28;20197;-60
2022/04/19 09:20:12;;;;;;;3.00;2.08;;;12.50;99.90;;;;;;5007632;28;20375;-61
2022/04/19 09:22:39;;;;;;;5.60;2.50;;;12.60;99.90;;;;;;5020322;28;20312;-61
2022/04/19 09:25:24;;;;;;;3.90;2.65;;;12.70;99.90;;;;;;5019083;28;20217;-61
2022/04/19 09:27:54;;;;;;;5.45;2.67;;;12.80;99.90;;;;;;5008623;28;20580;-62
2022/04/19 09:30:23;;;;;;;11.38;2.67;;;12.90;99.90;;;;;;5033043;28;20607;-62
2022/04/19 09:33:06;;;;;;;4.15;2.83;;;12.90;99.90;;;;;;5015565;28;20229;-62
2022/04/19 09:35:35;;;;;;;5.82;2.92;;;12.90;99.90;;;;;;5007153;28;20734;-62
2022/04/19 09:38:02;;;;;;;7.88;3.03;;;13.00;99.90;;;;;;5032516;28;20205;-61
2022/04/19 09:40:31;;;;;;;4.03;2.67;;;13.00;99.90;;;;;;5024383;28;20722;-61
2022/04/19 09:43:11;;;;;;;2.95;2.50;;;13.00;99.90;;;;;;5014230;28;20232;-60
2022/04/19 09:45:54;;;;;;;4.10;2.90;;;12.90;99.90;;;;;;5029667;28;20245;-61
2022/04/19 09:48:22;;;;;;;3.65;2.67;;;13.00;99.90;;;;;;5035284;28;20220;-60
2022/04/19 09:50:51;;;;;;;4.75;3.00;;;13.00;99.90;;;;;;5030245;28;20609;-61
2022/04/19 09:53:19;;;;;;;5.53;3.70;;;13.00;99.90;;;;;;5012000;28;20704;-60
2022/04/19 09:55:51;;;;;;;3.50;2.58;;;13.10;99.90;;;;;;5022519;28;20221;-61
2022/04/19 09:58:20;;;;;;;4.72;2.53;;;13.20;99.90;;;;;;5005552;28;20701;-60
2022/04/19 10:00:49;;;;;;;5.78;3.50;;;13.40;99.90;;;;;;5013802;28;20591;-60
2022/04/19 10:09:00;;;;;;;3.95;2.80;;;13.40;99.90;;;;;;5014341;28;20225;-62
2022/04/19 10:11:28;;;;;;;4.55;3.10;;;13.40;99.90;;;;;;5025549;28;20834;-61
2022/04/19 10:13:58;;;;;;;4.97;3.53;;;13.50;99.90;;;;;;5003297;28;20319;-60
2022/04/19 10:16:26;;;;;;;5.68;3.63;;;13.60;99.90;;;;;;5026581;28;20603;-60
2022/04/19 10:18:53;;;;;;;4.65;3.08;;;13.80;99.90;;;;;;5012168;28;20224;-60
2022/04/19 10:21:24;;;;;;;5.63;3.30;;;13.80;99.90;;;;;;4976042;28;20241;-60
2022/04/19 10:23:51;;;;;;;4.82;3.47;;;13.80;99.90;;;;;;5011771;28;20224;-61
2022/04/19 10:26:22;;;;;;;8.30;3.28;;;13.90;99.90;;;;;;5024664;28;20282;-60
2022/04/19 10:28:51;;;;;;;7.57;3.75;;;13.90;99.90;;;;;;5004499;28;20313;-62
2022/04/19 10:31:35;;;;;;;5.55;3.22;;;13.90;99.90;;;;;;5020983;28;26442;-61
2022/04/19 10:34:02;;;;;;;5.65;3.22;;;14.00;99.90;;;;;;5028711;28;21595;-61
2022/04/19 10:36:37;;;;;;;5.47;3.28;;;14.00;99.90;;;;;;5009928;28;20197;-61
2022/04/19 10:39:25;;;;;;;6.43;3.67;;;14.00;99.90;;;;;;5008132;28;20747;-61
2022/04/19 10:41:57;;;;;;;5.00;3.47;;;14.10;99.90;;;;;;5018930;28;20259;-61
2022/04/19 10:44:28;;;;;;;5.82;3.10;;;14.00;99.90;;;;;;5009715;28;20603;-61
2022/04/19 10:47:12;;;;;;;4.70;3.05;;;14.20;99.90;;;;;;5005921;28;20605;-61
2022/04/19 10:49:57;;;;;;;8.80;2.97;;;14.20;99.90;;;;;;5018053;28;20248;-61
2022/04/19 10:52:50;;;;;;;6.43;3.08;;;14.20;99.90;;;;;;4994895;28;20213;-60
2022/04/19 10:55:31;;;;;;;6.53;2.58;;;14.40;99.90;;;;;;5004682;28;20229;-61
2022/04/19 10:58:20;;;;;;;5.13;3.17;;;14.30;99.90;;;;;;5004776;28;20225;-62
2022/04/19 11:00:53;;;;;;;6.30;3.17;;;14.20;99.90;;;;;;5002214;28;20295;-61
2022/04/19 11:03:40;;;;;;;5.35;3.33;;;14.30;99.90;;;;;;5022485;28;20727;-61
2022/04/19 11:06:09;;;;;;;5.32;3.20;;;14.30;99.90;;;;;;5002880;28;21357;-60
2022/04/19 11:08:38;;;;;;;7.38;3.22;;;14.20;99.90;;;;;;4998462;28;20589;-61
2022/04/19 11:11:23;;;;;;;10.55;3.53;;;14.30;99.90;;;;;;5013464;28;20745;-60
2022/04/19 11:14:34;;;;;;;6.00;3.38;;;14.30;99.90;;;;;;5004725;28;20735;-61
2022/04/19 11:17:23;;;;;;;5.43;3.20;;;14.30;99.90;;;;;;4995938;28;20698;-61
2022/04/19 11:19:55;;;;;;;4.72;3.13;;;14.40;99.90;;;;;;5025181;28;20202;-61
2022/04/19 11:22:29;;;;;;;6.55;3.17;;;14.40;99.90;;;;;;5014461;28;20202;-61
2022/04/19 11:25:03;;;;;;;5.45;3.45;;;14.30;99.90;;;;;;5014907;28;20209;-60
2022/04/19 11:28:04;;;;;;;7.07;3.30;;;14.50;99.90;;;;;;5025420;28;20288;-61
2022/04/19 11:30:30;;;;;;;7.35;2.95;;;14.50;99.90;;;;;;4992886;28;20200;-61
2022/04/19 11:32:59;;;;;;;4.97;2.72;;;14.50;99.90;;;;;;5023311;28;20222;-61
2022/04/19 11:35:32;;;;;;;4.72;3.05;;;14.50;99.90;;;;;;5027928;28;20212;-62
2022/04/19 11:38:03;;;;;;;4.32;3.20;;;14.60;99.90;;;;;;4995209;28;20206;-61
2022/04/19 11:48:48;;;;;;;5.57;3.58;;;14.60;99.90;;;;;;5013307;28;20237;-61
2022/04/19 11:51:19;;;;;;;4.88;2.90;;;14.50;99.90;;;;;;5027411;28;20368;-61
2022/04/19 11:53:50;;;;;;;5.28;3.33;;;14.50;99.90;;;;;;5003753;28;20232;-61
2022/04/19 11:56:17;;;;;;;9.50;3.47;;;14.50;99.90;;;;;;5023365;28;20225;-62
2022/04/19 11:58:49;;;;;;;6.57;3.33;;;14.50;99.90;;;;;;5014493;28;20751;-62
2022/04/19 12:01:16;;;;;;;6.05;3.50;;;14.60;99.90;;;;;;5009365;28;20259;-62
2022/04/19 12:03:44;;;;;;;3.70;2.95;;;14.70;99.90;;;;;;5009816;28;20201;-61
2022/04/19 12:06:14;;;;;;;4.53;3.10;;;14.90;99.90;;;;;;5020537;28;20202;-61
2022/04/19 12:08:43;;;;;;;4.88;3.08;;;14.90;99.90;;;;;;5014649;28;20225;-62
2022/04/19 12:11:14;;;;;;;4.70;3.05;;;14.90;99.90;;;;;;5018465;28;20201;-62
2022/04/19 12:13:44;;;;;;;4.60;3.13;;;15.00;99.90;;;;;;5028295;28;20247;-61
2022/04/19 12:16:28;;;;;;;4.47;3.15;;;15.00;99.90;;;;;;5036805;28;20201;-61
2022/04/19 12:18:55;;;;;;;4.55;3.20;;;15.00;99.90;;;;;;5019775;28;21397;-61
2022/04/19 12:21:35;;;;;;;8.35;2.95;;;15.10;99.90;;;;;;4997768;28;21319;-60
2022/04/19 12:24:03;;;;;;;4.40;3.30;;;14.90;99.90;;;;;;5010347;28;20228;-61
2022/04/19 12:26:31;;;;;;;4.18;3.53;;;15.00;99.90;;;;;;4998621;28;20252;-61
2022/04/19 12:29:12;;;;;;;4.30;3.00;;;15.00;99.90;;;;;;5035644;28;20243;-63
2022/04/19 12:31:40;;;;;;;5.15;3.13;;;14.90;99.90;;;;;;5043283;28;20240;-63
2022/04/19 12:34:09;;;;;;;4.70;3.22;;;15.00;99.90;;;;;;5031706;28;20225;-63
2022/04/19 12:36:45;;;;;;;4.00;3.30;;;15.00;99.90;;;;;;5025257;28;20204;-62
2022/04/19 12:39:14;;;;;;;4.88;3.13;;;15.00;99.90;;;;;;5034066;28;20328;-61
2022/04/19 12:41:43;;;;;;;5.20;3.60;;;15.00;99.90;;;;;;5026319;28;20330;-60
2022/04/19 12:44:11;;;;;;;8.13;3.50;;;15.00;99.90;;;;;;5008676;28;20224;-63
2022/04/19 12:46:43;;;;;;;9.60;3.65;;;14.90;99.90;;;;;;5012639;28;20698;-63
2022/04/19 12:49:26;;;;;;;9.00;4.03;;;15.00;99.90;;;;;;5006479;28;20209;-61
2022/04/19 12:52:00;;;;;;;5.00;3.70;;;15.10;99.90;;;;;;5026178;28;20292;-61
2022/04/19 12:54:29;;;;;;;4.97;3.80;;;14.90;99.90;;;;;;4991245;28;20232;-62
2022/04/19 12:57:35;;;;;;;4.75;3.60;;;14.90;99.90;;;;;;5027820;23;20218;-60
2022/04/19 13:00:02;;;;;;;6.65;3.75;;;14.90;99.90;;;;;;4979730;28;20321;-61
2022/04/19 13:02:31;;;;;;;8.43;4.75;;;15.00;99.90;;;;;;4976099;28;20219;-62
2022/04/19 13:04:58;;;;;;;5.70;3.85;;;15.10;99.90;;;;;;4960193;28;20892;-62
2022/04/19 13:13:04;;;;;;;6.40;3.85;;;15.40;99.90;;;;;;4971422;28;20253;-62
2022/04/19 13:15:32;;;;;;;4.18;3.00;;;15.40;99.90;;;;;;4982135;28;20285;-61
2022/04/19 13:17:59;;;;;;;5.47;3.10;;;15.50;99.90;;;;;;4960706;28;20717;-62
2022/04/19 13:20:27;;;;;;;5.63;3.38;;;15.50;99.90;;;;;;4969656;28;20211;-61
2022/04/19 13:22:55;;;;;;;4.80;3.20;;;15.50;99.90;;;;;;4986737;28;20286;-62
2022/04/19 13:25:23;;;;;;;5.07;2.80;;;15.60;99.90;;;;;;4965664;28;20211;-62
2022/04/19 13:27:51;;;;;;;4.80;3.17;;;15.60;99.90;;;;;;4974899;28;20242;-61
2022/04/19 13:30:19;;;;;;;6.20;2.85;;;15.60;99.90;;;;;;4979786;28;20211;-61
2022/04/19 13:32:46;;;;;;;5.18;2.63;;;15.50;99.90;;;;;;4982371;28;20301;-62
2022/04/19 13:35:14;;;;;;;4.53;3.40;;;15.50;99.90;;;;;;4977054;28;20240;-61
2022/04/19 13:40:26;;;;;;;6.15;3.00;;;15.50;99.90;;;;;;4984764;28;20984;-61
2022/04/19 13:42:55;;;;;;;4.55;2.80;;;15.60;99.90;;;;;;4980100;28;20223;-62
2022/04/19 13:45:22;;;;;;;5.93;3.10;;;15.60;99.90;;;;;;4957076;28;20941;-62
2022/04/19 13:47:50;;;;;;;5.72;2.85;;;15.60;99.90;;;;;;4980964;28;20211;-66
2022/04/19 13:50:17;;;;;;;6.28;2.92;;;15.60;99.90;;;;;;4965936;28;20225;-62
2022/04/19 13:52:45;;;;;;;6.32;2.45;;;15.60;99.90;;;;;;4968718;28;20222;-62